sensor_id;sensor_type;location;lat;lon;timestamp;temperature;humidity
84397;DHT22;74595;48.846;2.358;2024-01-25T19:42:08;13.40;50.60
84397;DHT22;74595;48.846;2.358;2024-01-25T20:04:51;18.40;37.40
84397;DHT22;74595;48.846;2.358;2024-01-25T20:07:27;16.40;50.10
84397;DHT22;74595;48.846;2.358;2024-01-25T20:09:53;15.80;61.40
84397;DHT22;74595;48.846;2.358;2024-01-25T20:12:19;15.30;46.40
84397;DHT22;74595;48.846;2.358;2024-01-25T20:14:44;14.70;46.80
84397;DHT22;74595;48.846;2.358;2024-01-25T20:17:12;14.00;49.00
84397;DHT22;74595;48.846;2.358;2024-01-25T20:19:37;13.00;52.80
84397;DHT22;74595;48.846;2.358;2024-01-25T20:22:03;12.80;52.90
84397;DHT22;74595;48.846;2.358;2024-01-25T20:24:29;12.70;53.70
84397;DHT22;74595;48.846;2.358;2024-01-25T20:26:54;12.60;53.40
84397;DHT22;74595;48.846;2.358;2024-01-25T20:29:20;12.40;54.20
84397;DHT22;74595;48.846;2.358;2024-01-25T20:31:45;12.30;54.60
84397;DHT22;74595;48.846;2.358;2024-01-25T20:34:11;12.10;55.90
84397;DHT22;74595;48.846;2.358;2024-01-25T20:36:37;12.00;57.80
84397;DHT22;74595;48.846;2.358;2024-01-25T20:39:02;11.90;56.30
84397;DHT22;74595;48.846;2.358;2024-01-25T20:41:28;11.70;57.30
84397;DHT22;74595;48.846;2.358;2024-01-25T20:43:53;11.70;57.40
84397;DHT22;74595;48.846;2.358;2024-01-25T20:46:19;11.80;57.00
84397;DHT22;74595;48.846;2.358;2024-01-25T20:48:45;11.80;56.50
84397;DHT22;74595;48.846;2.358;2024-01-25T20:51:11;11.80;56.90
84397;DHT22;74595;48.846;2.358;2024-01-25T20:53:36;11.60;57.70
84397;DHT22;74595;48.846;2.358;2024-01-25T20:56:02;11.70;57.80
84397;DHT22;74595;48.846;2.358;2024-01-25T20:58:28;11.40;59.10
84397;DHT22;74595;48.846;2.358;2024-01-25T21:00:54;11.50;58.50
84397;DHT22;74595;48.846;2.358;2024-01-25T21:03:20;11.20;59.50
84397;DHT22;74595;48.846;2.358;2024-01-25T21:05:46;11.00;60.00
84397;DHT22;74595;48.846;2.358;2024-01-25T21:08:12;11.10;60.10
84397;DHT22;74595;48.846;2.358;2024-01-25T21:10:38;11.20;59.10
84397;DHT22;74595;48.846;2.358;2024-01-25T21:13:04;11.40;58.40
84397;DHT22;74595;48.846;2.358;2024-01-25T21:15:29;11.40;58.20
84397;DHT22;74595;48.846;2.358;2024-01-25T21:17:55;11.40;58.40
84397;DHT22;74595;48.846;2.358;2024-01-25T21:20:21;11.20;60.10
84397;DHT22;74595;48.846;2.358;2024-01-25T21:22:46;11.10;60.10
84397;DHT22;74595;48.846;2.358;2024-01-25T21:25:12;11.30;59.00
84397;DHT22;74595;48.846;2.358;2024-01-25T21:27:38;11.30;59.30
84397;DHT22;74595;48.846;2.358;2024-01-25T21:30:04;11.30;59.20
84397;DHT22;74595;48.846;2.358;2024-01-25T21:32:30;11.20;59.90
84397;DHT22;74595;48.846;2.358;2024-01-25T21:34:55;11.30;59.40
84397;DHT22;74595;48.846;2.358;2024-01-25T21:37:21;11.30;59.90
84397;DHT22;74595;48.846;2.358;2024-01-25T21:39:47;11.30;59.20
84397;DHT22;74595;48.846;2.358;2024-01-25T21:42:12;11.30;59.30
84397;DHT22;74595;48.846;2.358;2024-01-25T21:44:38;11.50;58.70
84397;DHT22;74595;48.846;2.358;2024-01-25T21:47:04;11.50;57.90
84397;DHT22;74595;48.846;2.358;2024-01-25T21:49:30;11.60;57.70
84397;DHT22;74595;48.846;2.358;2024-01-25T21:51:56;11.50;57.70
84397;DHT22;74595;48.846;2.358;2024-01-25T21:54:22;11.50;57.90
84397;DHT22;74595;48.846;2.358;2024-01-25T21:56:47;11.30;58.70
84397;DHT22;74595;48.846;2.358;2024-01-25T21:59:14;11.40;58.60
84397;DHT22;74595;48.846;2.358;2024-01-25T22:01:41;11.50;57.90
84397;DHT22;74595;48.846;2.358;2024-01-25T22:04:07;11.40;57.50
84397;DHT22;74595;48.846;2.358;2024-01-25T22:06:32;11.40;57.50
84397;DHT22;74595;48.846;2.358;2024-01-25T22:08:58;11.40;57.60
84397;DHT22;74595;48.846;2.358;2024-01-25T22:11:23;11.30;58.30
84397;DHT22;74595;48.846;2.358;2024-01-25T22:13:49;11.10;59.10
84397;DHT22;74595;48.846;2.358;2024-01-25T22:16:20;11.10;59.10
84397;DHT22;74595;48.846;2.358;2024-01-25T22:18:46;11.20;58.50
84397;DHT22;74595;48.846;2.358;2024-01-25T22:21:13;11.20;58.80
84397;DHT22;74595;48.846;2.358;2024-01-25T22:23:38;11.00;59.20
84397;DHT22;74595;48.846;2.358;2024-01-25T22:26:05;11.10;59.20
84397;DHT22;74595;48.846;2.358;2024-01-25T22:28:30;11.00;59.40
84397;DHT22;74595;48.846;2.358;2024-01-25T22:30:57;10.90;60.00
84397;DHT22;74595;48.846;2.358;2024-01-25T22:33:23;11.00;60.00
84397;DHT22;74595;48.846;2.358;2024-01-25T22:35:48;11.00;59.70
84397;DHT22;74595;48.846;2.358;2024-01-25T22:38:14;11.00;60.80
84397;DHT22;74595;48.846;2.358;2024-01-25T22:40:39;11.00;59.40
84397;DHT22;74595;48.846;2.358;2024-01-25T22:43:05;10.70;60.80
84397;DHT22;74595;48.846;2.358;2024-01-25T22:45:31;10.70;61.00
84397;DHT22;74595;48.846;2.358;2024-01-25T22:47:57;10.80;60.30
84397;DHT22;74595;48.846;2.358;2024-01-25T22:50:23;10.80;60.80
84397;DHT22;74595;48.846;2.358;2024-01-25T22:52:48;10.40;62.00
84397;DHT22;74595;48.846;2.358;2024-01-25T22:55:14;10.30;61.80
84397;DHT22;74595;48.846;2.358;2024-01-25T22:57:39;10.70;60.50
84397;DHT22;74595;48.846;2.358;2024-01-25T23:00:06;10.70;59.90
84397;DHT22;74595;48.846;2.358;2024-01-25T23:02:46;10.80;59.50
84397;DHT22;74595;48.846;2.358;2024-01-25T23:05:12;10.70;59.90
84397;DHT22;74595;48.846;2.358;2024-01-25T23:07:39;10.80;59.20
84397;DHT22;74595;48.846;2.358;2024-01-25T23:10:05;10.90;59.20
84397;DHT22;74595;48.846;2.358;2024-01-25T23:12:30;10.90;58.70
84397;DHT22;74595;48.846;2.358;2024-01-25T23:14:56;10.90;59.10
84397;DHT22;74595;48.846;2.358;2024-01-25T23:17:22;10.90;58.80
84397;DHT22;74595;48.846;2.358;2024-01-25T23:19:48;11.00;58.40
84397;DHT22;74595;48.846;2.358;2024-01-25T23:22:14;11.00;58.70
84397;DHT22;74595;48.846;2.358;2024-01-25T23:24:39;10.90;58.50
84397;DHT22;74595;48.846;2.358;2024-01-25T23:27:06;11.10;58.20
84397;DHT22;74595;48.846;2.358;2024-01-25T23:29:32;11.10;58.10
84397;DHT22;74595;48.846;2.358;2024-01-25T23:31:57;11.10;57.60
84397;DHT22;74595;48.846;2.358;2024-01-25T23:34:23;11.10;57.70
84397;DHT22;74595;48.846;2.358;2024-01-25T23:36:49;11.00;58.20
84397;DHT22;74595;48.846;2.358;2024-01-25T23:39:14;10.80;58.90
84397;DHT22;74595;48.846;2.358;2024-01-25T23:41:40;10.90;58.10
84397;DHT22;74595;48.846;2.358;2024-01-25T23:44:07;10.90;58.60
84397;DHT22;74595;48.846;2.358;2024-01-25T23:46:33;10.80;58.60
84397;DHT22;74595;48.846;2.358;2024-01-25T23:48:59;10.90;58.00
84397;DHT22;74595;48.846;2.358;2024-01-25T23:51:24;10.70;58.90
84397;DHT22;74595;48.846;2.358;2024-01-25T23:53:50;10.90;58.20
84397;DHT22;74595;48.846;2.358;2024-01-25T23:56:15;10.90;58.10
84397;DHT22;74595;48.846;2.358;2024-01-25T23:58:41;10.60;59.00
